Time;durP1;ratioP1;P1;durP2;ratioP2;P2;SDS_P1;SDS_P2;PMS_P1;PMS_P2;Temp;Humidity;BMP_temperature;BMP_pressure;BME280_temperature;BME280_humidity;BME280_pressure;Samples;Min_cycle;Max_cycle;Signal;HPM_P1;HPM_P2
2023/03/30 00:01:17;;;;;;;3.70;1.80;;;;;;;7.52;46.58;95361.91;5032167;28;20435;-78
2023/03/30 00:03:44;;;;;;;3.85;2.30;;;;;;;7.51;47.17;95361.09;5032235;28;20424;-78
2023/03/30 00:06:14;;;;;;;2.65;1.90;;;;;;;7.58;47.07;95356.75;5032996;28;20449;-78
2023/03/30 00:08:39;;;;;;;2.67;1.90;;;;;;;7.60;45.87;95340.88;5032456;28;20463;-78
2023/03/30 00:11:07;;;;;;;3.15;2.03;;;;;;;7.52;46.27;95354.84;5031196;28;20421;-78
2023/03/30 00:13:34;;;;;;;2.42;1.73;;;;;;;7.50;46.21;95346.38;5030968;28;20464;-78
2023/03/30 00:16:00;;;;;;;1.75;1.58;;;;;;;7.55;46.05;95358.91;5031067;28;20487;-78
2023/03/30 00:18:26;;;;;;;3.40;2.20;;;;;;;7.41;46.21;95355.31;5031045;28;20416;-78
2023/03/30 00:20:51;;;;;;;2.67;1.83;;;;;;;7.24;46.71;95332.88;5030768;28;20425;-78
2023/03/30 00:23:18;;;;;;;3.05;1.58;;;;;;;7.40;46.90;95352.84;5031247;28;20496;-78
2023/03/30 00:25:44;;;;;;;4.37;1.60;;;;;;;7.11;46.90;95309.91;5031041;28;20416;-78
2023/03/30 00:28:09;;;;;;;3.47;1.88;;;;;;;7.40;47.41;95358.09;5031840;28;20424;-78
2023/03/30 00:30:36;;;;;;;3.37;1.77;;;;;;;7.35;47.58;95360.44;5031150;28;20420;-78
2023/03/30 00:33:02;;;;;;;3.47;1.50;;;;;;;7.30;47.67;95360.97;5032114;28;20238;-78
2023/03/30 00:35:29;;;;;;;2.67;1.60;;;;;;;7.31;48.36;95346.88;5031296;28;20443;-78
2023/03/30 00:37:55;;;;;;;4.97;2.80;;;;;;;7.23;48.70;95360.06;5030445;28;20420;-77
2023/03/30 00:40:22;;;;;;;5.03;2.67;;;;;;;7.28;49.82;95359.50;5030656;28;20417;-78
2023/03/30 00:42:47;;;;;;;7.40;3.87;;;;;;;7.23;50.27;95351.38;5031911;28;20608;-77
2023/03/30 00:45:18;;;;;;;3.77;1.97;;;;;;;7.29;50.82;95369.00;5031715;28;20425;-78
2023/03/30 00:48:19;;;;;;;3.72;2.40;;;;;;;7.22;51.42;95349.75;5030899;28;20409;-78
2023/03/30 00:51:16;;;;;;;2.90;2.25;;;;;;;7.22;52.36;95349.75;5030393;28;20483;-78
2023/03/30 00:53:51;;;;;;;2.35;1.90;;;;;;;7.24;52.00;95358.25;5030250;28;20929;-78
2023/03/30 00:56:22;;;;;;;2.58;1.95;;;;;;;7.27;51.53;95353.47;5030160;28;20433;-78
2023/03/30 00:58:48;;;;;;;4.17;1.70;;;;;;;7.13;51.79;95362.91;5031970;28;20601;-78
2023/03/30 01:01:24;;;;;;;3.47;1.70;;;;;;;7.08;51.82;95360.03;5030354;28;20426;-78
2023/03/30 01:03:51;;;;;;;3.13;1.63;;;;;;;6.99;52.31;95362.88;5031506;28;20439;-78
2023/03/30 01:06:20;;;;;;;4.23;2.00;;;;;;;6.98;53.04;95354.22;5031702;28;20662;-77
2023/03/30 01:08:46;;;;;;;5.85;2.90;;;;;;;7.01;53.30;95358.25;5029971;28;20429;-77
2023/03/30 01:11:12;;;;;;;6.15;2.67;;;;;;;6.91;53.09;95357.72;5033625;28;20471;-77
2023/03/30 01:13:43;;;;;;;2.90;1.70;;;;;;;6.74;53.93;95354.41;5034610;28;20893;-77
2023/03/30 01:16:37;;;;;;;3.80;1.90;;;;;;;6.40;55.68;95345.13;5033605;28;20503;-77
2023/03/30 01:19:24;;;;;;;2.65;1.83;;;;;;;6.37;56.09;95348.09;5033501;28;20492;-77
2023/03/30 01:22:03;;;;;;;3.13;1.90;;;;;;;6.52;56.01;95355.19;5033780;28;20413;-77
2023/03/30 01:24:52;;;;;;;3.28;2.17;;;;;;;6.56;55.72;95359.13;5026557;28;20478;-77
2023/03/30 01:27:29;;;;;;;3.55;1.83;;;;;;;6.39;56.35;95354.00;5033944;28;20420;-77
2023/03/30 01:30:03;;;;;;;3.20;1.90;;;;;;;6.42;57.03;95348.38;5034439;28;20416;-77
2023/03/30 01:32:31;;;;;;;3.85;1.73;;;;;;;6.52;56.73;95353.41;5034462;28;20913;-77
2023/03/30 01:35:05;;;;;;;4.72;2.30;;;;;;;6.53;57.03;95359.44;5034008;28;20570;-77
2023/03/30 01:37:58;;;;;;;4.25;2.20;;;;;;;6.51;57.58;95371.88;5033662;28;20444;-76
2023/03/30 01:40:41;;;;;;;3.85;2.40;;;;;;;6.42;57.38;95363.25;5033085;28;20925;-77
2023/03/30 01:43:22;;;;;;;3.97;2.20;;;;;;;6.27;57.65;95355.34;5033355;28;21017;-76
2023/03/30 01:45:56;;;;;;;4.70;2.00;;;;;;;6.30;57.22;95356.81;5027601;28;20482;-77
2023/03/30 01:48:32;;;;;;;4.68;2.25;;;;;;;6.31;57.33;95364.47;5033388;28;20428;-77
2023/03/30 01:51:41;;;;;;;5.63;2.28;;;;;;;6.27;57.49;95357.97;5033351;28;20960;-76
2023/03/30 01:54:12;;;;;;;2.97;2.27;;;;;;;6.39;56.98;95361.84;5029278;28;20275;-76
2023/03/30 01:56:48;;;;;;;4.77;2.60;;;;;;;6.32;56.90;95347.78;5034690;28;20286;-77
2023/03/30 01:59:26;;;;;;;5.38;2.38;;;;;;;6.36;56.69;95346.47;5034650;28;20407;-77
2023/03/30 02:01:59;;;;;;;4.15;2.13;;;;;;;6.45;56.08;95352.47;5025011;28;20401;-77
2023/03/30 02:04:26;;;;;;;4.10;2.03;;;;;;;6.53;55.27;95368.09;5032834;28;20413;-76
2023/03/30 02:06:59;;;;;;;3.80;1.97;;;;;;;6.61;55.25;95365.44;5034249;28;20206;-76
2023/03/30 02:09:28;;;;;;;4.43;2.40;;;;;;;6.49;54.98;95355.56;5034734;28;20202;-77
2023/03/30 02:11:54;;;;;;;4.13;2.38;;;;;;;6.60;55.32;95363.81;5032456;28;20443;-76
2023/03/30 02:14:26;;;;;;;4.40;2.63;;;;;;;6.39;55.88;95354.00;5032647;28;20409;-76
2023/03/30 02:16:59;;;;;;;4.35;2.60;;;;;;;6.46;55.92;95354.09;5032514;28;20412;-77
2023/03/30 02:19:26;;;;;;;5.05;2.90;;;;;;;6.57;56.21;95364.19;5032557;28;20459;-76
2023/03/30 02:21:51;;;;;;;5.63;3.33;;;;;;;6.61;56.06;95369.84;5031619;28;20413;-77
2023/03/30 02:24:22;;;;;;;5.33;3.00;;;;;;;6.75;56.18;95369.09;5034277;28;20672;-77
2023/03/30 02:26:50;;;;;;;7.72;2.92;;;;;;;6.78;55.79;95359.09;5033152;28;20478;-77
2023/03/30 02:29:17;;;;;;;4.50;2.47;;;;;;;6.82;56.35;95367.44;5034272;28;20233;-77
2023/03/30 02:31:45;;;;;;;3.43;2.30;;;;;;;6.80;56.94;95372.03;5033839;28;20203;-77
2023/03/30 02:34:43;;;;;;;5.65;2.72;;;;;;;6.78;57.40;95371.38;5032214;28;20426;-77
2023/03/30 02:37:35;;;;;;;4.97;2.90;;;;;;;6.70;58.16;95361.78;5021656;28;20456;-78
2023/03/30 02:40:31;;;;;;;5.25;2.47;;;;;;;6.46;58.97;95332.38;5032416;28;20467;-78
2023/03/30 02:43:15;;;;;;;2.83;2.03;;;;;;;6.76;58.62;95375.97;5034118;28;20696;-78
2023/03/30 02:45:46;;;;;;;4.15;2.40;;;;;;;6.79;58.88;95383.47;5032525;28;20928;-78
2023/03/30 02:48:14;;;;;;;5.47;2.60;;;;;;;6.85;59.53;95382.75;5033429;28;20790;-78
2023/03/30 02:50:43;;;;;;;3.33;2.30;;;;;;;6.69;59.03;95365.38;5034119;28;20409;-77
2023/03/30 02:53:31;;;;;;;5.13;2.60;;;;;;;6.75;59.74;95384.78;5032779;28;21090;-78
2023/03/30 02:56:10;;;;;;;4.53;2.75;;;;;;;6.66;60.28;95381.41;5031985;28;21121;-77
2023/03/30 02:58:45;;;;;;;5.80;3.10;;;;;;;6.70;60.42;95381.91;5032948;28;20510;-78
2023/03/30 03:01:16;;;;;;;5.50;2.67;;;;;;;6.77;60.11;95388.06;5033684;28;20507;-78
2023/03/30 03:03:48;;;;;;;3.77;2.63;;;;;;;6.82;60.45;95388.38;5033749;28;20180;-78
2023/03/30 03:06:14;;;;;;;3.33;2.53;;;;;;;6.80;60.64;95379.88;5033888;28;20715;-78
2023/03/30 03:08:42;;;;;;;5.18;3.35;;;;;;;6.77;60.75;95390.66;5032178;28;20840;-78
2023/03/30 03:11:08;;;;;;;8.23;3.03;;;;;;;6.48;61.30;95354.75;5033435;28;20175;-78
2023/03/30 03:13:35;;;;;;;5.43;3.23;;;;;;;6.67;61.52;95379.63;5033124;28;20334;-78
2023/03/30 03:16:03;;;;;;;7.20;4.20;;;;;;;6.76;61.44;95396.88;5033508;28;20675;-77
2023/03/30 03:18:29;;;;;;;8.65;3.70;;;;;;;6.77;61.52;95391.50;5031991;28;20412;-78
2023/03/30 03:20:55;;;;;;;7.73;3.53;;;;;;;6.76;61.91;95392.47;5031773;28;20249;-78
2023/03/30 03:23:20;;;;;;;5.27;3.57;;;;;;;6.78;61.90;95395.72;5032021;28;20417;-78
2023/03/30 03:25:47;;;;;;;7.80;3.10;;;;;;;6.70;62.15;95387.13;5033464;28;20175;-79
2023/03/30 03:28:12;;;;;;;4.60;3.10;;;;;;;6.79;62.14;95393.94;5033553;28;20183;-79
2023/03/30 03:30:38;;;;;;;9.67;3.67;;;;;;;6.77;62.72;95394.09;5033709;28;20187;-79
2023/03/30 03:33:03;;;;;;;8.23;4.87;;;;;;;6.65;63.01;95368.53;5031419;28;20441;-78
2023/03/30 03:35:29;;;;;;;14.13;7.07;;;;;;;6.81;62.77;95398.00;5031842;28;20420;-79
2023/03/30 03:37:54;;;;;;;9.20;5.13;;;;;;;6.68;62.86;95376.00;5031714;28;20595;-79
2023/03/30 03:40:20;;;;;;;7.00;4.33;;;;;;;6.77;63.04;95388.06;5028229;28;20176;-80
2023/03/30 03:42:46;;;;;;;7.23;3.70;;;;;;;6.75;63.66;95396.06;5023339;28;20437;-78
2023/03/30 03:45:11;;;;;;;5.63;3.53;;;;;;;6.66;64.30;95391.88;5024454;28;20436;-78
2023/03/30 03:47:36;;;;;;;7.63;4.17;;;;;;;6.71;64.38;95404.47;5024334;28;20206;-79
2023/03/30 03:50:02;;;;;;;6.10;4.27;;;;;;;6.37;64.22;95361.19;5027083;28;20191;-79
2023/03/30 03:52:29;;;;;;;9.82;5.32;;;;;;;6.52;65.29;95395.25;5031795;28;20432;-79
2023/03/30 03:54:54;;;;;;;6.28;3.40;;;;;;;6.56;65.07;95417.47;5031747;28;20478;-79
2023/03/30 03:57:22;;;;;;;4.47;3.00;;;;;;;6.60;65.32;95423.16;5032839;28;20172;-79
2023/03/30 03:59:48;;;;;;;6.47;3.30;;;;;;;6.48;65.46;95406.25;5032668;28;20176;-78
2023/03/30 04:02:13;;;;;;;6.00;3.05;;;;;;;6.54;65.70;95423.84;5031722;28;20429;-79
2023/03/30 04:04:39;;;;;;;6.90;3.50;;;;;;;6.42;65.92;95405.91;5028098;28;20541;-78
2023/03/30 04:07:06;;;;;;;4.57;2.60;;;;;;;6.54;66.14;95423.84;5031776;28;20417;-79
2023/03/30 04:09:31;;;;;;;5.28;2.70;;;;;;;6.37;66.69;95425.72;5031044;28;20417;-79
2023/03/30 04:11:57;;;;;;;4.90;3.27;;;;;;;6.26;67.33;95415.66;5031087;28;20435;-79
2023/03/30 04:14:22;;;;;;;4.68;3.22;;;;;;;6.35;67.66;95412.00;5031219;28;20416;-78
2023/03/30 04:16:48;;;;;;;5.23;3.13;;;;;;;6.40;67.19;95420.13;5031259;28;20440;-78
2023/03/30 04:19:14;;;;;;;5.00;3.20;;;;;;;6.42;67.43;95413.75;5032438;28;20411;-79
2023/03/30 04:21:40;;;;;;;6.90;3.53;;;;;;;6.47;67.47;95415.88;5030900;28;20539;-79
2023/03/30 04:24:10;;;;;;;6.83;3.60;;;;;;;6.41;67.40;95406.09;5030835;28;20429;-77
2023/03/30 04:26:36;;;;;;;7.55;4.35;;;;;;;6.48;67.21;95412.28;5030332;28;21284;-78
2023/03/30 04:29:03;;;;;;;6.30;3.63;;;;;;;6.33;67.40;95391.25;5032616;28;20230;-79
2023/03/30 04:31:33;;;;;;;6.70;4.07;;;;;;;6.54;67.83;95416.00;5030619;28;20409;-79
2023/03/30 04:34:01;;;;;;;6.15;4.43;;;;;;;6.54;67.74;95408.16;5030501;28;20413;-77
2023/03/30 04:36:27;;;;;;;10.60;5.00;;;;;;;6.54;67.74;95411.59;5030511;28;20696;-77
2023/03/30 04:38:57;;;;;;;9.40;4.77;;;;;;;6.44;67.52;95395.28;5031174;28;20176;-78
2023/03/30 04:41:32;;;;;;;11.77;5.60;;;;;;;6.46;67.56;95418.66;5031259;28;20175;-78
2023/03/30 04:44:00;;;;;;;11.68;5.72;;;;;;;6.46;67.33;95419.47;5029567;28;20486;-79
2023/03/30 04:46:25;;;;;;;10.90;5.20;;;;;;;6.48;67.10;95427.97;5030528;28;20202;-78
2023/03/30 04:48:51;;;;;;;10.27;5.00;;;;;;;6.55;68.33;95421.06;5031037;28;20448;-78
2023/03/30 04:51:16;;;;;;;10.27;5.80;;;;;;;6.58;67.46;95409.41;5030325;28;20917;-79
2023/03/30 04:53:42;;;;;;;17.20;7.07;;;;;;;6.63;66.80;95413.16;5030082;28;20443;-79
2023/03/30 04:56:07;;;;;;;13.53;5.90;;;;;;;6.72;66.18;95411.31;5032106;28;20245;-79
2023/03/30 04:58:32;;;;;;;17.10;5.57;;;;;;;6.76;66.10;95423.06;5031779;28;20184;-79
2023/03/30 05:00:58;;;;;;;13.63;6.87;;;;;;;6.79;65.91;95430.56;5029382;28;20672;-79
2023/03/30 05:03:23;;;;;;;16.27;7.03;;;;;;;6.81;65.90;95424.19;5031411;28;20168;-77
2023/03/30 05:05:49;;;;;;;20.53;7.70;;;;;;;6.78;66.07;95431.53;5029951;28;20417;-77
2023/03/30 05:08:14;;;;;;;14.50;6.80;;;;;;;6.78;65.65;95429.75;5032017;28;20203;-78
2023/03/30 05:10:40;;;;;;;13.50;6.77;;;;;;;6.80;66.07;95429.59;5031289;28;20259;-77
2023/03/30 05:13:05;;;;;;;12.13;5.77;;;;;;;6.73;65.84;95418.19;5030073;28;20203;-77
2023/03/30 05:15:31;;;;;;;15.67;7.27;;;;;;;6.78;65.69;95415.84;5026426;28;20178;-77
2023/03/30 05:17:58;;;;;;;10.17;6.23;;;;;;;6.91;65.04;95439.66;5025673;28;20214;-77
2023/03/30 05:20:24;;;;;;;13.07;6.23;;;;;;;6.95;65.14;95430.47;5026540;28;20653;-77
2023/03/30 05:22:50;;;;;;;20.30;7.10;;;;;;;6.95;65.26;95427.03;5026207;28;20179;-77
2023/03/30 05:25:15;;;;;;;20.60;7.23;;;;;;;7.01;66.07;95427.13;5027909;28;20187;-77
2023/03/30 05:27:41;;;;;;;21.90;7.33;;;;;;;7.01;66.00;95431.56;5030362;28;20251;-78
2023/03/30 05:30:07;;;;;;;25.27;7.90;;;;;;;7.04;65.33;95431.22;5025436;28;20175;-78
2023/03/30 05:32:32;;;;;;;23.60;6.80;;;;;;;7.08;65.53;95422.84;5030094;28;20242;-78
2023/03/30 05:34:58;;;;;;;19.93;5.93;;;;;;;7.08;65.31;95430.72;5031058;28;20207;-78
2023/03/30 05:37:23;;;;;;;11.10;4.57;;;;;;;7.12;65.12;95429.34;5031173;28;20186;-79
2023/03/30 05:39:48;;;;;;;6.23;3.10;;;;;;;7.20;65.38;95437.13;5031201;28;20180;-78
2023/03/30 05:42:14;;;;;;;9.33;3.57;;;;;;;7.15;65.25;95415.09;5031056;28;20215;-78
2023/03/30 05:44:41;;;;;;;11.87;4.70;;;;;;;7.31;64.50;95428.06;5031112;28;20182;-80
2023/03/30 05:47:06;;;;;;;8.50;4.40;;;;;;;7.44;64.02;95438.75;5031071;28;20180;-76
2023/03/30 05:49:32;;;;;;;15.40;3.90;;;;;;;7.47;63.85;95438.41;5031216;28;20172;-77
2023/03/30 05:51:57;;;;;;;7.77;3.17;;;;;;;7.54;64.14;95425.41;5030913;28;20223;-76
2023/03/30 05:54:22;;;;;;;9.83;3.80;;;;;;;7.59;64.36;95436.16;5030885;28;20168;-78
2023/03/30 05:56:48;;;;;;;9.97;4.10;;;;;;;7.62;64.64;95437.59;5031288;28;20174;-78
2023/03/30 05:59:14;;;;;;;12.13;4.40;;;;;;;7.59;65.25;95441.41;5034659;28;20685;-78
2023/03/30 06:01:40;;;;;;;8.40;3.83;;;;;;;7.60;65.45;95435.19;5034477;28;20203;-78
2023/03/30 06:04:06;;;;;;;8.37;4.37;;;;;;;7.55;65.93;95440.13;5034400;28;20203;-78
2023/03/30 06:06:32;;;;;;;7.40;3.80;;;;;;;7.54;66.20;95448.97;5032974;28;20653;-78
2023/03/30 06:08:57;;;;;;;8.80;4.20;;;;;;;7.42;66.29;95445.97;5034197;28;20175;-78
2023/03/30 06:11:22;;;;;;;6.30;3.10;;;;;;;7.34;66.93;95448.66;5034431;28;20179;-78
2023/03/30 06:13:48;;;;;;;5.93;3.07;;;;;;;7.20;67.54;95437.13;5034085;28;20207;-78
2023/03/30 06:16:13;;;;;;;7.77;3.50;;;;;;;7.30;67.74;95463.09;5034088;28;20186;-78
2023/03/30 06:18:39;;;;;;;9.70;3.37;;;;;;;7.34;68.16;95463.56;5034053;28;20216;-78
2023/03/30 06:21:05;;;;;;;8.07;3.83;;;;;;;7.38;67.91;95464.81;5034067;28;20172;-78
2023/03/30 06:23:32;;;;;;;6.47;3.67;;;;;;;7.10;68.14;95428.69;5033960;28;20172;-78
2023/03/30 06:25:58;;;;;;;6.30;2.90;;;;;;;7.34;68.36;95466.19;5033978;28;20559;-76
2023/03/30 06:28:24;;;;;;;7.53;3.40;;;;;;;7.25;68.24;95456.75;5034159;28;20187;-75
2023/03/30 06:30:49;;;;;;;10.43;3.67;;;;;;;7.35;68.72;95470.44;5034054;28;20180;-78
2023/03/30 06:33:16;;;;;;;5.80;3.77;;;;;;;7.31;69.20;95464.72;5033523;28;20192;-78
2023/03/30 06:35:49;;;;;;;10.03;3.40;;;;;;;7.34;68.69;95469.63;5033519;28;20168;-78
2023/03/30 06:38:16;;;;;;;19.87;5.20;;;;;;;7.38;69.17;95472.69;5032168;28;20187;-76
2023/03/30 06:40:42;;;;;;;5.43;3.33;;;;;;;7.39;68.34;95469.91;5032639;28;20182;-78
2023/03/30 06:43:14;;;;;;;5.73;3.93;;;;;;;7.41;68.79;95469.72;5033172;28;20263;-78
2023/03/30 06:45:40;;;;;;;8.60;3.80;;;;;;;7.46;69.12;95470.00;5033630;28;20186;-78
2023/03/30 06:48:05;;;;;;;8.63;3.30;;;;;;;7.55;68.64;95467.13;5033346;28;20258;-78
2023/03/30 06:50:31;;;;;;;6.53;4.10;;;;;;;7.65;68.22;95476.56;5025323;28;20179;-78
2023/03/30 06:52:56;;;;;;;17.37;5.43;;;;;;;7.64;67.77;95456.59;5033351;28;20203;-78
2023/03/30 06:55:22;;;;;;;10.10;4.17;;;;;;;7.72;66.95;95469.59;5033373;28;20624;-78
2023/03/30 06:57:47;;;;;;;9.50;4.40;;;;;;;7.88;67.39;95478.13;5033320;28;20180;-78
2023/03/30 07:00:14;;;;;;;6.30;4.13;;;;;;;7.96;66.24;95475.44;5033341;28;20182;-75
2023/03/30 07:02:42;;;;;;;9.47;5.30;;;;;;;8.08;66.56;95470.56;5032268;28;20172;-78
2023/03/30 07:05:08;;;;;;;7.43;4.37;;;;;;;8.23;66.59;95478.44;5033212;28;20184;-78
2023/03/30 07:07:35;;;;;;;10.03;4.80;;;;;;;8.39;65.93;95475.66;5032586;28;20184;-78
2023/03/30 07:10:06;;;;;;;7.87;3.97;;;;;;;8.57;65.45;95475.28;5033319;28;20175;-78
2023/03/30 07:12:31;;;;;;;8.00;4.17;;;;;;;8.71;65.04;95474.47;5032875;28;20223;-76
2023/03/30 07:14:57;;;;;;;6.87;3.77;;;;;;;8.80;64.08;95475.16;5030686;28;20267;-75
2023/03/30 07:17:22;;;;;;;8.23;4.00;;;;;;;9.01;62.97;95480.44;5032695;28;20192;-76
2023/03/30 07:19:48;;;;;;;6.50;3.17;;;;;;;9.18;61.67;95481.84;5033263;28;20199;-76
2023/03/30 07:22:13;;;;;;;8.67;3.30;;;;;;;9.33;61.94;95490.50;5032955;28;20222;-75
2023/03/30 07:24:39;;;;;;;5.97;3.57;;;;;;;9.48;61.51;95490.44;5032797;28;20658;-76
2023/03/30 07:27:05;;;;;;;6.37;3.43;;;;;;;9.60;60.20;95490.75;5032825;28;20176;-76
2023/03/30 07:29:31;;;;;;;7.47;3.77;;;;;;;9.62;59.37;95491.34;5032984;28;20182;-76
2023/03/30 07:31:57;;;;;;;8.97;4.67;;;;;;;9.61;59.22;95494.97;5032597;28;20279;-76
2023/03/30 07:34:22;;;;;;;8.60;3.53;;;;;;;9.67;59.58;95495.06;5032495;28;20663;-76
2023/03/30 07:36:48;;;;;;;8.13;3.90;;;;;;;9.70;58.87;95493.84;5032725;28;20195;-76
2023/03/30 07:39:13;;;;;;;5.33;3.40;;;;;;;9.77;58.01;95490.28;5032722;28;20176;-76
2023/03/30 07:41:39;;;;;;;6.53;4.27;;;;;;;9.90;57.72;95496.66;5032737;28;20184;-76
2023/03/30 07:44:04;;;;;;;7.50;3.83;;;;;;;10.03;57.71;95475.72;5032205;28;20227;-76
2023/03/30 07:46:30;;;;;;;4.80;3.23;;;;;;;10.31;57.31;95488.88;5032298;28;20171;-76
2023/03/30 07:48:56;;;;;;;8.67;3.93;;;;;;;10.35;55.53;95467.25;5032459;28;20180;-76
2023/03/30 07:51:22;;;;;;;9.80;4.00;;;;;;;10.77;54.59;95489.94;5032412;28;20183;-76
2023/03/30 07:53:47;;;;;;;10.13;4.63;;;;;;;10.83;54.26;95467.25;5032431;28;20211;-77
2023/03/30 07:56:13;;;;;;;6.00;3.77;;;;;;;11.26;53.86;95488.88;5032436;28;20660;-77
2023/03/30 07:58:39;;;;;;;6.33;4.43;;;;;;;11.35;52.78;95477.13;5032473;28;20648;-76
2023/03/30 08:01:04;;;;;;;6.83;3.90;;;;;;;11.50;54.11;95487.53;5030928;28;20179;-77
2023/03/30 08:03:33;;;;;;;10.10;4.27;;;;;;;11.69;53.16;95497.25;5031688;28;20191;-76
2023/03/30 08:06:03;;;;;;;6.97;3.80;;;;;;;11.93;51.00;95491.44;5032149;28;20191;-77
2023/03/30 08:08:30;;;;;;;9.87;4.30;;;;;;;11.99;50.83;95484.53;5032324;28;20180;-77
2023/03/30 08:10:56;;;;;;;8.00;4.20;;;;;;;12.17;51.18;95490.00;5032365;28;20876;-77
2023/03/30 08:13:21;;;;;;;10.03;4.20;;;;;;;12.25;49.46;95487.16;5032015;28;20195;-77
2023/03/30 08:15:47;;;;;;;6.03;3.57;;;;;;;12.25;48.79;95488.97;5032097;28;20199;-77
2023/03/30 08:18:13;;;;;;;5.80;3.27;;;;;;;12.27;49.17;95485.13;5032403;28;20632;-77
2023/03/30 08:20:40;;;;;;;7.73;4.07;;;;;;;12.17;49.73;95478.63;5031583;28;20186;-76
2023/03/30 08:23:07;;;;;;;9.13;4.07;;;;;;;12.32;48.74;95479.22;5033336;28;20172;-78
2023/03/30 08:25:33;;;;;;;12.57;6.03;;;;;;;12.44;50.23;95478.38;5034874;28;20648;-79
2023/03/30 08:27:59;;;;;;;9.20;6.43;;;;;;;11.99;48.97;95485.34;5032605;28;20175;-77
2023/03/30 08:30:24;;;;;;;10.57;4.67;;;;;;;11.81;49.52;95473.78;5032340;28;20181;-77
2023/03/30 08:32:50;;;;;;;6.43;4.37;;;;;;;11.89;49.34;95481.47;5032469;28;20245;-77
2023/03/30 08:35:16;;;;;;;7.83;5.17;;;;;;;11.60;49.88;95477.38;5032492;28;20175;-77
2023/03/30 08:37:42;;;;;;;7.20;4.13;;;;;;;11.40;50.93;95461.53;5031986;28;20176;-77
2023/03/30 08:40:11;;;;;;;11.67;4.83;;;;;;;11.32;50.38;95461.75;5032665;28;20243;-77
2023/03/30 08:43:28;;;;;;;10.23;5.40;;;;;;;11.26;51.27;95476.50;5031625;28;20727;-77
2023/03/30 08:45:53;;;;;;;12.10;4.57;;;;;;;11.41;51.15;95478.19;4987506;28;20195;-77
2023/03/30 08:48:23;;;;;;;5.80;3.63;;;;;;;11.65;50.07;95475.78;5031945;28;20267;-78
2023/03/30 08:51:01;;;;;;;6.17;4.00;;;;;;;11.98;48.75;95478.44;5032300;28;20179;-78
2023/03/30 08:53:29;;;;;;;7.10;4.30;;;;;;;11.79;50.21;95470.53;5023785;28;20210;-76
2023/03/30 08:56:06;;;;;;;11.67;4.03;;;;;;;11.54;50.59;95451.81;5031064;28;20175;-75
2023/03/30 08:58:40;;;;;;;12.10;4.63;;;;;;;11.81;51.88;95460.59;5031093;28;20175;-75
2023/03/30 09:01:17;;;;;;;8.63;4.40;;;;;;;12.11;50.14;95459.13;5031154;28;20182;-75
2023/03/30 09:03:58;;;;;;;15.30;5.17;;;;;;;12.69;52.20;95460.03;5031001;28;21660;-79
2023/03/30 09:06:57;;;;;;;5.93;3.67;;;;;;;13.05;45.72;95459.47;5031870;28;20798;-78
2023/03/30 09:09:31;;;;;;;6.67;3.40;;;;;;;13.32;45.25;95454.84;5029162;28;20182;-78
2023/03/30 09:12:16;;;;;;;14.53;3.60;;;;;;;13.27;45.05;95398.34;5031771;28;20178;-78
2023/03/30 09:15:14;;;;;;;8.03;3.60;;;;;;;14.17;45.42;95439.38;5031645;28;20175;-78
2023/03/30 09:17:54;;;;;;;6.07;3.10;;;;;;;14.39;45.07;95440.59;5031640;28;20262;-78
2023/03/30 09:20:23;;;;;;;3.13;2.27;;;;;;;14.95;43.29;95445.66;5031841;28;20171;-78
2023/03/30 09:22:49;;;;;;;14.35;2.85;;;;;;;15.48;43.02;95444.91;5031453;28;20586;-77
2023/03/30 09:25:17;;;;;;;8.25;3.13;;;;;;;16.05;42.77;95446.13;5031223;28;20262;-77
2023/03/30 09:27:58;;;;;;;3.58;2.10;;;;;;;16.26;41.51;95430.66;5030955;28;20233;-77
2023/03/30 09:30:45;;;;;;;3.97;1.88;;;;;;;16.16;39.95;95437.34;5031045;28;20176;-77
2023/03/30 09:33:37;;;;;;;4.22;1.75;;;;;;;15.88;39.10;95426.59;5032481;28;20203;-77
2023/03/30 09:36:08;;;;;;;4.80;2.08;;;;;;;15.71;39.61;95428.28;5031995;28;20179;-76
2023/03/30 09:38:37;;;;;;;4.03;2.70;;;;;;;15.70;40.04;95421.34;5024308;28;20263;-76
2023/03/30 09:41:37;;;;;;;4.60;2.53;;;;;;;15.66;39.22;95417.53;5032390;28;20172;-76
2023/03/30 09:44:11;;;;;;;7.55;3.92;;;;;;;15.18;40.37;95391.09;5032468;28;20334;-77
2023/03/30 09:46:37;;;;;;;13.35;2.85;;;;;;;15.23;40.68;95409.78;5032683;28;20660;-77
2023/03/30 09:49:15;;;;;;;6.55;2.65;;;;;;;15.37;41.54;95419.19;5032901;28;20190;-76
2023/03/30 09:52:02;;;;;;;4.20;2.45;;;;;;;15.57;40.29;95416.28;5031423;28;20176;-76
2023/03/30 09:54:36;;;;;;;3.20;2.20;;;;;;;15.39;39.77;95396.69;5034408;28;20222;-76
2023/03/30 09:57:03;;;;;;;14.48;2.72;;;;;;;14.80;39.40;95418.72;5035052;28;20189;-76
2023/03/30 09:59:37;;;;;;;5.97;2.33;;;;;;;14.03;39.85;95401.59;5034566;28;20314;-76
2023/03/30 10:02:24;;;;;;;5.17;2.70;;;;;;;13.71;42.65;95411.47;5033479;28;20255;-76
2023/03/30 10:04:52;;;;;;;3.73;2.73;;;;;;;13.81;42.85;95408.31;5034235;28;20198;-76
2023/03/30 10:07:41;;;;;;;24.73;4.43;;;;;;;13.87;42.14;95415.38;5034676;28;20179;-76
2023/03/30 10:10:33;;;;;;;6.10;3.03;;;;;;;13.10;43.75;95371.59;5033855;28;20179;-76
2023/03/30 10:13:16;;;;;;;5.37;2.40;;;;;;;13.67;45.21;95406.78;5034305;28;20215;-77
2023/03/30 10:15:47;;;;;;;8.33;3.23;;;;;;;13.93;43.38;95399.44;5032708;28;20176;-77
2023/03/30 10:18:15;;;;;;;3.30;1.90;;;;;;;14.08;44.41;95396.47;5033393;28;20261;-76
2023/03/30 10:20:41;;;;;;;5.57;2.07;;;;;;;14.18;44.29;95396.75;5033884;28;20585;-76
2023/03/30 10:23:16;;;;;;;8.57;2.50;;;;;;;14.27;42.45;95394.66;5034096;28;20176;-77
2023/03/30 10:25:42;;;;;;;2.67;2.13;;;;;;;14.00;41.47;95388.00;5021526;28;20203;-76
2023/03/30 10:28:20;;;;;;;3.90;1.80;;;;;;;13.50;42.65;95377.44;5033846;28;20179;-76
2023/03/30 10:31:15;;;;;;;4.07;2.20;;;;;;;13.17;43.58;95352.03;5034032;28;20222;-77
2023/03/30 10:33:42;;;;;;;14.93;4.77;;;;;;;13.33;43.37;95381.63;5027684;28;20540;-78
2023/03/30 10:36:09;;;;;;;3.37;2.40;;;;;;;13.20;42.58;95362.22;5034643;28;20546;-79
2023/03/30 10:38:36;;;;;;;5.43;2.70;;;;;;;13.14;43.33;95360.44;5034048;28;20541;-78
2023/03/30 10:41:08;;;;;;;3.47;2.23;;;;;;;12.92;43.44;95374.13;5034189;28;20183;-80
2023/03/30 10:43:35;;;;;;;2.67;1.90;;;;;;;12.90;44.93;95358.50;5016701;28;20251;-79
2023/03/30 10:46:12;;;;;;;7.63;3.80;;;;;;;13.23;43.51;95368.09;5034678;28;20825;-77
2023/03/30 10:49:05;;;;;;;5.80;2.90;;;;;;;13.35;43.14;95369.00;5038616;28;20199;-78
2023/03/30 10:51:44;;;;;;;7.63;2.80;;;;;;;13.18;43.47;95348.38;5037604;28;20229;-78
2023/03/30 10:54:28;;;;;;;7.17;2.70;;;;;;;13.51;44.02;95365.81;5030387;28;20711;-78
2023/03/30 10:56:55;;;;;;;26.13;4.27;;;;;;;13.50;42.66;95358.91;5034188;28;20182;-78
2023/03/30 10:59:36;;;;;;;11.73;3.43;;;;;;;13.32;42.87;95322.63;5033827;28;20290;-79
2023/03/30 11:02:07;;;;;;;4.33;2.30;;;;;;;13.67;43.32;95353.88;5033188;28;20196;-78
2023/03/30 11:04:42;;;;;;;9.17;2.53;;;;;;;13.85;44.13;95346.78;5033382;28;20282;-79
2023/03/30 11:07:23;;;;;;;4.50;1.90;;;;;;;14.13;43.11;95346.31;5032419;28;20252;-78
2023/03/30 11:09:57;;;;;;;12.93;3.07;;;;;;;14.36;45.70;95325.25;5033390;28;20653;-78
2023/03/30 11:12:29;;;;;;;4.57;2.27;;;;;;;14.64;43.42;95335.31;5033457;28;20596;-79
2023/03/30 11:15:16;;;;;;;5.07;1.77;;;;;;;14.66;42.41;95314.72;5048509;28;20317;-78
2023/03/30 11:17:54;;;;;;;3.92;1.75;;;;;;;14.57;40.53;95331.16;5033903;28;20172;-78
2023/03/30 11:20:32;;;;;;;7.47;2.53;;;;;;;14.57;41.76;95326.66;5028051;28;20174;-78
2023/03/30 11:23:04;;;;;;;5.30;2.00;;;;;;;14.62;41.75;95328.63;5031951;28;20225;-80
2023/03/30 11:25:36;;;;;;;4.07;1.90;;;;;;;14.53;41.94;95296.31;5030447;28;20230;-78
2023/03/30 11:28:10;;;;;;;10.43;3.47;;;;;;;14.75;41.72;95322.34;5033474;28;20179;-78
2023/03/30 11:30:36;;;;;;;9.63;3.90;;;;;;;14.73;40.72;95309.31;5033626;28;20171;-79
2023/03/30 11:33:33;;;;;;;3.15;2.10;;;;;;;14.73;39.98;95307.47;5032422;28;20245;-77
2023/03/30 11:36:19;;;;;;;4.90;3.10;;;;;;;14.70;40.59;95299.97;5029115;28;20238;-77
2023/03/30 11:38:50;;;;;;;6.23;2.77;;;;;;;14.71;41.02;95298.94;5033330;28;20237;-78
2023/03/30 11:41:23;;;;;;;5.97;2.33;;;;;;;14.70;40.39;95299.19;5033466;28;20273;-78
2023/03/30 11:43:54;;;;;;;4.25;2.40;;;;;;;14.73;42.60;95299.53;5032561;28;20310;-78
2023/03/30 11:46:38;;;;;;;6.63;2.37;;;;;;;14.83;42.52;95288.38;5032950;28;20172;-79
2023/03/30 11:49:28;;;;;;;5.07;2.15;;;;;;;15.11;41.38;95290.41;5030569;28;20175;-79
2023/03/30 11:52:05;;;;;;;2.33;1.90;;;;;;;15.29;43.13;95281.56;5028727;28;20183;-78
2023/03/30 11:54:44;;;;;;;3.42;1.90;;;;;;;15.30;39.31;95285.84;5032488;28;20206;-79